SLOR

Juan Mendoza Airport

Airport
ICAO code
SLOR
Summary
ICAO Region
CARSAM
ICAO Territory
Location

Oruro, Oruro

Serving
Oruro
Elevation
12152 ft
Coordinates
17° 57' 45" S , 67° 4' 34" W
KCC
BSk
Metar
Observation
SLOR 101600Z 36003KT 9999 FEW017 12/M02 Q1040
Station
Oruro
Date/Time
2022-08-10 16:00:00
Wind direction
360°
Wind speed
03 kts
Lowest cloud amount
few clouds
Temperature
12°C
Dew point
-2°C
Humidity
37%
QNH
1040 hPa
Weather condition
n/a

Juan Mendoza Airport is an extremely high elevation airport serving the city of Oruro, the capital of the Oruro Department in Bolivia.

Climatology

Cold Semi-arid climate (Köppen climate classification BSk).

Runways

Designator Length Width Surface Rops
9/27 1867 37 GRE No/No
18/36 2461 23 ASP No/No

Airport map

Aerial View

SKYbrary Partners:

Safety knowledge contributed by: